Time;durP1;ratioP1;P1;durP2;ratioP2;P2;SDS_P1;SDS_P2;PMS_P1;PMS_P2;Temp;Humidity;BMP_temperature;BMP_pressure;BME280_temperature;BME280_humidity;BME280_pressure;Samples;Min_cycle;Max_cycle;Signal;HPM_P1;HPM_P2
2023/09/27 00:00:09;;;;;;;4.18;1.23;;;;;;;;;;4977542;28;20033;-72
2023/09/27 00:02:35;;;;;;;4.63;1.10;;;;;;;;;;4971017;28;20030;-72
2023/09/27 00:05:02;;;;;;;3.60;1.00;;;;;;;;;;4974121;28;20215;-73
2023/09/27 00:07:28;;;;;;;4.57;1.00;;;;;;;;;;4974831;28;20113;-72
2023/09/27 00:09:55;;;;;;;4.07;1.08;;;;;;;;;;4973348;28;20025;-71
2023/09/27 00:12:21;;;;;;;3.85;1.20;;;;;;;;;;4974380;28;20041;-71
2023/09/27 00:14:47;;;;;;;3.92;0.90;;;;;;;;;;4975132;28;20215;-73
2023/09/27 00:17:13;;;;;;;2.75;0.90;;;;;;;;;;4976479;28;20352;-72
2023/09/27 00:19:39;;;;;;;3.83;1.10;;;;;;;;;;4976268;28;20109;-72
2023/09/27 00:22:05;;;;;;;4.50;1.33;;;;;;;;;;4977684;28;20126;-71
2023/09/27 00:24:31;;;;;;;3.47;1.05;;;;;;;;;;4976262;28;20057;-71
2023/09/27 00:26:58;;;;;;;3.72;1.10;;;;;;;;;;4978967;28;20111;-72
2023/09/27 00:29:24;;;;;;;3.33;1.00;;;;;;;;;;4978747;28;20970;-71
2023/09/27 00:31:50;;;;;;;2.85;0.98;;;;;;;;;;4976148;28;22258;-71
2023/09/27 00:34:16;;;;;;;3.78;1.17;;;;;;;;;;4978673;28;20036;-72
2023/09/27 00:36:42;;;;;;;5.82;1.27;;;;;;;;;;4972382;28;20402;-70
2023/09/27 00:39:08;;;;;;;4.18;1.02;;;;;;;;;;4980170;28;20029;-71
2023/09/27 00:41:34;;;;;;;4.03;1.08;;;;;;;;;;4976232;28;20591;-71
2023/09/27 00:44:00;;;;;;;4.60;1.20;;;;;;;;;;4977233;28;20033;-70
2023/09/27 00:46:26;;;;;;;3.65;1.10;;;;;;;;;;4978822;28;20196;-70
2023/09/27 00:48:53;;;;;;;3.13;1.10;;;;;;;;;;4973363;28;20073;-70
2023/09/27 00:51:19;;;;;;;4.25;1.20;;;;;;;;;;4979755;28;20057;-71
2023/09/27 00:53:46;;;;;;;4.32;1.10;;;;;;;;;;4975305;28;20719;-70
2023/09/27 00:56:13;;;;;;;4.45;1.20;;;;;;;;;;4978348;28;20030;-70
2023/09/27 00:58:39;;;;;;;4.05;1.20;;;;;;;;;;4977178;28;20810;-72
2023/09/27 01:01:06;;;;;;;3.58;1.02;;;;;;;;;;4978696;28;20034;-72
2023/09/27 01:03:32;;;;;;;4.45;1.30;;;;;;;;;;4975962;28;20124;-72
2023/09/27 01:05:58;;;;;;;5.00;1.08;;;;;;;;;;4978786;28;20534;-72
2023/09/27 01:08:24;;;;;;;3.63;1.10;;;;;;;;;;4977280;28;20034;-72
2023/09/27 01:10:51;;;;;;;5.65;1.20;;;;;;;;;;4973388;28;20034;-70
2023/09/27 01:13:17;;;;;;;4.13;1.15;;;;;;;;;;4980786;28;20048;-71
2023/09/27 01:15:43;;;;;;;3.17;1.00;;;;;;;;;;4975988;28;20034;-72
2023/09/27 01:18:09;;;;;;;3.88;1.10;;;;;;;;;;4977173;28;20029;-73
2023/09/27 01:20:35;;;;;;;4.50;1.35;;;;;;;;;;4974072;28;20069;-71
2023/09/27 01:23:03;;;;;;;4.47;1.15;;;;;;;;;;4974947;28;20038;-70
2023/09/27 01:25:30;;;;;;;3.28;1.08;;;;;;;;;;4974326;28;20042;-70
2023/09/27 01:27:57;;;;;;;6.18;1.33;;;;;;;;;;4978056;28;20491;-71
2023/09/27 01:30:25;;;;;;;3.35;1.02;;;;;;;;;;4980821;28;20026;-72
2023/09/27 01:32:51;;;;;;;4.45;1.20;;;;;;;;;;4974280;28;20392;-72
2023/09/27 01:35:17;;;;;;;4.13;1.10;;;;;;;;;;4979776;28;20034;-72
2023/09/27 01:37:43;;;;;;;4.22;1.20;;;;;;;;;;4976689;28;20033;-72
2023/09/27 01:40:09;;;;;;;4.85;1.10;;;;;;;;;;4979385;28;20038;-72
2023/09/27 01:42:43;;;;;;;4.15;1.30;;;;;;;;;;4976353;28;20034;-72
2023/09/27 01:45:10;;;;;;;2.65;0.90;;;;;;;;;;4977863;28;20041;-72
2023/09/27 01:47:36;;;;;;;3.13;1.10;;;;;;;;;;4976484;28;20033;-72
2023/09/27 01:50:02;;;;;;;4.65;1.05;;;;;;;;;;4978272;28;20029;-72
2023/09/27 01:52:29;;;;;;;4.80;1.20;;;;;;;;;;4979800;28;20038;-72
2023/09/27 01:54:55;;;;;;;4.25;0.95;;;;;;;;;;4975770;28;20753;-72
2023/09/27 01:57:21;;;;;;;3.85;1.10;;;;;;;;;;4976658;28;20048;-71
2023/09/27 01:59:47;;;;;;;3.08;1.00;;;;;;;;;;4976306;28;20239;-73
2023/09/27 02:02:13;;;;;;;2.92;1.00;;;;;;;;;;4979273;28;20056;-71
2023/09/27 02:04:39;;;;;;;3.63;0.90;;;;;;;;;;4973545;28;20045;-71
2023/09/27 02:07:05;;;;;;;4.32;1.20;;;;;;;;;;4977958;28;20034;-70
2023/09/27 02:09:32;;;;;;;5.35;1.00;;;;;;;;;;4974184;28;20045;-71
2023/09/27 02:11:58;;;;;;;4.07;1.10;;;;;;;;;;4977551;28;20055;-71
2023/09/27 02:14:24;;;;;;;3.20;1.10;;;;;;;;;;4979707;28;20034;-71
2023/09/27 02:16:51;;;;;;;5.22;1.20;;;;;;;;;;4975879;28;20277;-71
2023/09/27 02:19:17;;;;;;;3.28;1.02;;;;;;;;;;4977782;28;20030;-70
2023/09/27 02:21:43;;;;;;;3.13;1.10;;;;;;;;;;4975637;28;20061;-72
2023/09/27 02:24:09;;;;;;;2.28;0.93;;;;;;;;;;4976206;28;20049;-71
2023/09/27 02:26:36;;;;;;;3.58;1.00;;;;;;;;;;4974450;28;20030;-71
2023/09/27 02:29:02;;;;;;;3.63;1.10;;;;;;;;;;4975544;28;20104;-71
2023/09/27 02:31:29;;;;;;;4.38;1.20;;;;;;;;;;4976129;28;20025;-71
2023/09/27 02:33:55;;;;;;;3.38;1.00;;;;;;;;;;4974865;28;20033;-72
2023/09/27 02:36:22;;;;;;;3.15;1.10;;;;;;;;;;4976867;28;20034;-71
2023/09/27 02:38:48;;;;;;;3.15;1.00;;;;;;;;;;4972749;28;20459;-71
2023/09/27 02:41:15;;;;;;;4.93;1.38;;;;;;;;;;4975880;28;20575;-71
2023/09/27 02:43:41;;;;;;;4.43;1.02;;;;;;;;;;4975776;28;20510;-71
2023/09/27 02:46:07;;;;;;;4.00;1.20;;;;;;;;;;4976546;28;20511;-70
2023/09/27 02:48:33;;;;;;;5.75;1.42;;;;;;;;;;4972878;28;20875;-70
2023/09/27 02:50:59;;;;;;;4.47;1.30;;;;;;;;;;4974774;28;20026;-70
2023/09/27 02:53:26;;;;;;;5.88;1.40;;;;;;;;;;4976778;28;20036;-72
2023/09/27 02:55:52;;;;;;;4.72;1.48;;;;;;;;;;4973752;28;20034;-71
2023/09/27 02:58:18;;;;;;;5.70;1.27;;;;;;;;;;4975510;28;20275;-72
2023/09/27 03:00:45;;;;;;;4.07;1.30;;;;;;;;;;4973397;28;20288;-72
2023/09/27 03:03:13;;;;;;;5.97;1.45;;;;;;;;;;4976991;28;20076;-72
2023/09/27 03:05:40;;;;;;;4.63;1.52;;;;;;;;;;4971920;28;20018;-72
2023/09/27 03:08:07;;;;;;;5.97;1.60;;;;;;;;;;4978002;28;20045;-72
2023/09/27 03:10:38;;;;;;;3.90;1.38;;;;;;;;;;4973669;28;20026;-71
2023/09/27 03:13:05;;;;;;;5.97;1.55;;;;;;;;;;4979295;28;20296;-73
2023/09/27 03:15:31;;;;;;;5.15;1.88;;;;;;;;;;4975875;28;20133;-73
2023/09/27 03:17:58;;;;;;;6.40;1.63;;;;;;;;;;4977171;28;20037;-72
2023/09/27 03:20:24;;;;;;;5.45;1.95;;;;;;;;;;4976939;28;20349;-72
2023/09/27 03:22:50;;;;;;;4.38;1.50;;;;;;;;;;4973803;28;20913;-70
2023/09/27 03:25:19;;;;;;;5.35;1.70;;;;;;;;;;4974694;28;20042;-72
2023/09/27 03:27:46;;;;;;;3.88;1.50;;;;;;;;;;4972641;28;20057;-71
2023/09/27 03:30:12;;;;;;;5.45;1.70;;;;;;;;;;4976494;28;20033;-70
2023/09/27 03:32:38;;;;;;;4.55;1.38;;;;;;;;;;4973913;28;20507;-71
2023/09/27 03:35:06;;;;;;;3.78;1.20;;;;;;;;;;4975894;28;20398;-71
2023/09/27 03:37:34;;;;;;;4.85;1.40;;;;;;;;;;4974847;28;20342;-71
2023/09/27 03:40:01;;;;;;;4.50;1.50;;;;;;;;;;4975840;28;20645;-71
2023/09/27 03:42:27;;;;;;;4.45;1.25;;;;;;;;;;4974747;28;20033;-70
2023/09/27 03:44:54;;;;;;;5.18;1.48;;;;;;;;;;4968535;28;20030;-71
2023/09/27 03:47:20;;;;;;;7.20;1.38;;;;;;;;;;4974265;28;20022;-71
2023/09/27 03:49:47;;;;;;;5.55;1.48;;;;;;;;;;4969954;28;20575;-72
2023/09/27 03:52:13;;;;;;;6.90;1.90;;;;;;;;;;4974934;28;20022;-73
2023/09/27 03:54:40;;;;;;;5.88;1.40;;;;;;;;;;4966179;28;20368;-71
2023/09/27 03:57:06;;;;;;;3.30;1.25;;;;;;;;;;4972369;28;20029;-71
2023/09/27 03:59:32;;;;;;;5.50;1.40;;;;;;;;;;4972159;28;20030;-70
2023/09/27 04:01:58;;;;;;;3.70;1.30;;;;;;;;;;4975703;28;20340;-72
2023/09/27 04:04:25;;;;;;;4.70;1.70;;;;;;;;;;4972866;28;20030;-72
2023/09/27 04:06:51;;;;;;;4.95;1.63;;;;;;;;;;4972771;28;20427;-72
2023/09/27 04:09:18;;;;;;;4.65;1.50;;;;;;;;;;4975317;28;20060;-72
2023/09/27 04:11:44;;;;;;;5.63;1.42;;;;;;;;;;4972377;28;20038;-72
2023/09/27 04:14:11;;;;;;;5.85;1.50;;;;;;;;;;4977440;28;20049;-72
2023/09/27 04:16:37;;;;;;;4.13;1.40;;;;;;;;;;4971340;28;20049;-72
2023/09/27 04:19:03;;;;;;;5.40;1.40;;;;;;;;;;4976963;28;20034;-72
2023/09/27 04:21:30;;;;;;;5.10;1.58;;;;;;;;;;4975396;28;20022;-71
2023/09/27 04:23:57;;;;;;;6.50;1.60;;;;;;;;;;4976136;28;20300;-72
2023/09/27 04:26:26;;;;;;;5.07;1.50;;;;;;;;;;4972878;28;20577;-72
2023/09/27 04:28:53;;;;;;;4.07;1.40;;;;;;;;;;4972155;28;20293;-71
2023/09/27 04:31:19;;;;;;;5.55;1.40;;;;;;;;;;4976064;28;20401;-71
2023/09/27 04:33:47;;;;;;;4.32;1.40;;;;;;;;;;4968310;28;20098;-71
2023/09/27 04:36:17;;;;;;;4.15;1.50;;;;;;;;;;4973737;28;20973;-71
2023/09/27 04:38:46;;;;;;;5.15;1.60;;;;;;;;;;4970692;28;20749;-70
2023/09/27 04:41:14;;;;;;;5.55;1.42;;;;;;;;;;4976851;28;20378;-71
2023/09/27 04:43:41;;;;;;;6.75;1.80;;;;;;;;;;4971657;28;20031;-70
2023/09/27 04:46:08;;;;;;;5.72;1.52;;;;;;;;;;4974919;28;20533;-72
2023/09/27 04:48:34;;;;;;;4.85;1.40;;;;;;;;;;4971138;28;20426;-72
2023/09/27 04:51:00;;;;;;;5.43;1.58;;;;;;;;;;4973172;28;20034;-72
2023/09/27 04:53:26;;;;;;;5.80;1.67;;;;;;;;;;4974719;28;20568;-72
2023/09/27 04:55:53;;;;;;;5.93;1.58;;;;;;;;;;4970285;28;20440;-72
2023/09/27 04:58:20;;;;;;;6.70;1.92;;;;;;;;;;4974398;28;20056;-72
2023/09/27 05:00:46;;;;;;;8.15;1.80;;;;;;;;;;4970651;28;20030;-72
2023/09/27 05:03:12;;;;;;;6.28;1.70;;;;;;;;;;4978366;28;20221;-72
2023/09/27 05:05:38;;;;;;;5.70;1.77;;;;;;;;;;4975784;28;20022;-72
2023/09/27 05:08:05;;;;;;;10.20;1.98;;;;;;;;;;4978609;28;20030;-72
2023/09/27 05:10:31;;;;;;;7.45;2.00;;;;;;;;;;4975149;28;20492;-72
2023/09/27 05:12:57;;;;;;;5.50;1.70;;;;;;;;;;4978448;28;20487;-72
2023/09/27 05:15:26;;;;;;;6.15;1.90;;;;;;;;;;4978318;28;20475;-70
2023/09/27 05:17:52;;;;;;;6.38;1.85;;;;;;;;;;4974697;28;20476;-71
2023/09/27 05:20:18;;;;;;;7.30;1.90;;;;;;;;;;4978915;28;20077;-71
2023/09/27 05:22:44;;;;;;;7.47;1.70;;;;;;;;;;4975491;28;20605;-71
2023/09/27 05:25:11;;;;;;;8.35;2.20;;;;;;;;;;4980066;28;20091;-72
2023/09/27 05:27:37;;;;;;;6.55;1.90;;;;;;;;;;4975233;28;20469;-72
2023/09/27 05:30:07;;;;;;;5.50;1.70;;;;;;;;;;4978174;28;20538;-72
2023/09/27 05:32:33;;;;;;;6.80;2.03;;;;;;;;;;4975273;28;20030;-72
2023/09/27 05:34:59;;;;;;;6.15;1.70;;;;;;;;;;4976315;28;20524;-72
2023/09/27 05:37:25;;;;;;;5.97;1.85;;;;;;;;;;4979369;28;20399;-72
2023/09/27 05:39:52;;;;;;;6.03;1.65;;;;;;;;;;4971640;28;20038;-72
2023/09/27 05:42:18;;;;;;;6.40;1.75;;;;;;;;;;4976727;28;20018;-72
2023/09/27 05:44:44;;;;;;;5.53;1.83;;;;;;;;;;4975167;28;20429;-72
2023/09/27 05:47:10;;;;;;;6.38;2.00;;;;;;;;;;4977909;28;20060;-72
2023/09/27 05:49:36;;;;;;;5.35;1.75;;;;;;;;;;4973197;28;20033;-72
2023/09/27 05:52:02;;;;;;;4.75;1.80;;;;;;;;;;4995138;28;20030;-72
2023/09/27 05:54:29;;;;;;;4.82;1.60;;;;;;;;;;4979611;28;20022;-72
2023/09/27 05:56:55;;;;;;;4.97;1.63;;;;;;;;;;4972120;28;20038;-72
2023/09/27 05:59:24;;;;;;;5.07;1.60;;;;;;;;;;4971987;28;20031;-70
2023/09/27 06:01:51;;;;;;;6.40;1.98;;;;;;;;;;4973730;28;20165;-71
2023/09/27 06:04:18;;;;;;;6.32;1.90;;;;;;;;;;4976751;28;20588;-71
2023/09/27 06:06:45;;;;;;;5.53;1.70;;;;;;;;;;4975174;28;20033;-71
2023/09/27 06:09:11;;;;;;;6.93;2.10;;;;;;;;;;4977303;28;20504;-71
2023/09/27 06:11:38;;;;;;;6.03;2.22;;;;;;;;;;4974963;28;20104;-71
2023/09/27 06:14:10;;;;;;;6.85;1.98;;;;;;;;;;4975740;28;20342;-70
2023/09/27 06:16:40;;;;;;;7.38;2.10;;;;;;;;;;4977204;28;20033;-70
2023/09/27 06:19:08;;;;;;;9.15;2.53;;;;;;;;;;4977171;28;20037;-71
2023/09/27 06:21:34;;;;;;;9.50;3.10;;;;;;;;;;4972083;28;20026;-71
2023/09/27 06:24:00;;;;;;;7.22;2.75;;;;;;;;;;4978366;28;20036;-70
2023/09/27 06:26:28;;;;;;;14.68;2.42;;;;;;;;;;4976005;28;20129;-70
2023/09/27 06:28:54;;;;;;;8.07;2.25;;;;;;;;;;4973227;28;20018;-71
2023/09/27 06:31:21;;;;;;;7.57;2.20;;;;;;;;;;4977624;28;20025;-71
2023/09/27 06:33:47;;;;;;;8.88;2.30;;;;;;;;;;4974610;28;20073;-70
2023/09/27 06:36:16;;;;;;;7.55;2.30;;;;;;;;;;4975683;28;20038;-70
2023/09/27 06:38:42;;;;;;;8.48;2.50;;;;;;;;;;4972870;28;20053;-71
2023/09/27 06:41:08;;;;;;;8.80;2.72;;;;;;;;;;4977061;28;20153;-72
2023/09/27 06:43:35;;;;;;;10.25;4.50;;;;;;;;;;4974533;28;20085;-72
2023/09/27 06:46:08;;;;;;;8.73;3.83;;;;;;;;;;4976396;28;20551;-71
2023/09/27 06:48:36;;;;;;;8.40;2.90;;;;;;;;;;4973814;28;20485;-71
2023/09/27 06:51:02;;;;;;;15.68;3.22;;;;;;;;;;4974761;28;20053;-70
2023/09/27 06:53:28;;;;;;;9.30;3.22;;;;;;;;;;4978154;28;20058;-70
2023/09/27 06:55:54;;;;;;;9.82;3.10;;;;;;;;;;4971254;28;20069;-71
2023/09/27 06:58:24;;;;;;;9.70;3.15;;;;;;;;;;4977752;28;20026;-72
2023/09/27 07:00:52;;;;;;;16.67;4.15;;;;;;;;;;4975640;28;20467;-71
2023/09/27 07:03:24;;;;;;;13.98;4.00;;;;;;;;;;4972883;28;20088;-71
2023/09/27 07:05:51;;;;;;;13.55;3.78;;;;;;;;;;4976627;28;22301;-71
2023/09/27 07:08:17;;;;;;;14.88;3.80;;;;;;;;;;4976710;28;20321;-71
2023/09/27 07:10:44;;;;;;;17.67;4.50;;;;;;;;;;4975793;28;20033;-71
2023/09/27 07:13:10;;;;;;;14.23;4.53;;;;;;;;;;4977671;28;20444;-70
2023/09/27 07:15:37;;;;;;;17.02;4.32;;;;;;;;;;4972739;28;20085;-70
2023/09/27 07:18:03;;;;;;;19.85;4.93;;;;;;;;;;4973430;28;20048;-70
2023/09/27 07:20:33;;;;;;;20.50;5.15;;;;;;;;;;4973911;28;20062;-70
2023/09/27 07:23:02;;;;;;;16.38;4.80;;;;;;;;;;4975824;28;20022;-73
2023/09/27 07:25:32;;;;;;;18.67;4.63;;;;;;;;;;4975408;28;20038;-70
2023/09/27 07:27:59;;;;;;;16.25;4.45;;;;;;;;;;4994465;28;20046;-70
2023/09/27 07:30:25;;;;;;;14.57;4.53;;;;;;;;;;4977821;28;20403;-70
2023/09/27 07:32:52;;;;;;;11.45;3.80;;;;;;;;;;4972441;28;20559;-70
2023/09/27 07:35:18;;;;;;;11.50;3.90;;;;;;;;;;4974721;28;20145;-70
2023/09/27 07:37:45;;;;;;;11.00;3.40;;;;;;;;;;4975464;28;20022;-70
2023/09/27 07:40:12;;;;;;;11.40;3.85;;;;;;;;;;4976094;28;20026;-70
2023/09/27 07:42:42;;;;;;;10.60;3.80;;;;;;;;;;4971625;28;20034;-70
2023/09/27 07:45:22;;;;;;;10.02;3.03;;;;;;;;;;4974550;28;20046;-72
2023/09/27 07:47:52;;;;;;;8.57;2.70;;;;;;;;;;4976913;28;20045;-72
2023/09/27 07:50:23;;;;;;;9.18;2.60;;;;;;;;;;4971995;28;20037;-70
2023/09/27 07:52:49;;;;;;;6.22;1.80;;;;;;;;;;4971144;28;20025;-70
2023/09/27 07:55:17;;;;;;;7.30;2.25;;;;;;;;;;4974478;28;20113;-71
2023/09/27 07:57:43;;;;;;;5.45;1.80;;;;;;;;;;4976464;28;20037;-71
2023/09/27 08:00:18;;;;;;;5.85;1.85;;;;;;;;;;4970662;28;20523;-71
2023/09/27 08:02:45;;;;;;;7.85;2.28;;;;;;;;;;4974387;28;20500;-71
2023/09/27 08:05:12;;;;;;;7.22;2.20;;;;;;;;;;4977739;28;20045;-71
2023/09/27 08:07:39;;;;;;;9.63;2.13;;;;;;;;;;4971707;28;20121;-71
2023/09/27 08:10:06;;;;;;;5.30;1.73;;;;;;;;;;4976230;28;20042;-73
2023/09/27 08:12:33;;;;;;;5.85;1.83;;;;;;;;;;4975444;28;20783;-72
2023/09/27 08:15:05;;;;;;;6.45;2.00;;;;;;;;;;4975460;28;20034;-72
2023/09/27 08:17:32;;;;;;;7.35;2.15;;;;;;;;;;4971198;28;20027;-72
2023/09/27 08:19:58;;;;;;;6.75;2.00;;;;;;;;;;4977778;28;20338;-72
2023/09/27 08:22:24;;;;;;;8.32;2.75;;;;;;;;;;4976702;28;20033;-72
2023/09/27 08:24:51;;;;;;;8.45;2.40;;;;;;;;;;4972261;28;20903;-71
2023/09/27 08:27:17;;;;;;;12.35;3.00;;;;;;;;;;4976554;28;20052;-71
2023/09/27 08:29:44;;;;;;;9.05;3.05;;;;;;;;;;4976756;28;20345;-71
2023/09/27 08:32:12;;;;;;;9.57;2.90;;;;;;;;;;4980044;28;20057;-72
2023/09/27 08:34:39;;;;;;;7.50;3.20;;;;;;;;;;4973387;28;20033;-71
2023/09/27 08:37:05;;;;;;;10.57;3.65;;;;;;;;;;4980215;28;20037;-73
2023/09/27 08:39:31;;;;;;;11.48;3.53;;;;;;;;;;4978178;28;20488;-71
2023/09/27 08:41:59;;;;;;;9.02;3.70;;;;;;;;;;4980003;28;20444;-71
2023/09/27 08:44:25;;;;;;;8.32;3.20;;;;;;;;;;4982157;28;20432;-71
2023/09/27 08:46:52;;;;;;;9.60;3.03;;;;;;;;;;4977023;28;20030;-71
2023/09/27 08:49:19;;;;;;;9.68;2.88;;;;;;;;;;4980702;28;20301;-72
2023/09/27 08:51:46;;;;;;;6.45;2.30;;;;;;;;;;4979530;28;20019;-72
2023/09/27 08:54:16;;;;;;;6.38;2.20;;;;;;;;;;4979531;28;20412;-71
2023/09/27 08:56:45;;;;;;;8.20;1.98;;;;;;;;;;4977615;28;20022;-71
2023/09/27 08:59:11;;;;;;;6.07;1.80;;;;;;;;;;4978086;28;20575;-71
2023/09/27 09:01:38;;;;;;;9.60;3.00;;;;;;;;;;4978401;28;20500;-71
2023/09/27 09:04:06;;;;;;;5.53;1.67;;;;;;;;;;4980017;28;20030;-71
2023/09/27 09:06:33;;;;;;;8.30;2.10;;;;;;;;;;4976950;28;20030;-73
2023/09/27 09:09:09;;;;;;;8.55;3.03;;;;;;;;;;4978132;28;20109;-71
2023/09/27 09:11:37;;;;;;;11.07;3.05;;;;;;;;;;4979135;28;20112;-72
2023/09/27 09:14:04;;;;;;;6.97;2.72;;;;;;;;;;4978393;28;20048;-73
2023/09/27 09:16:55;;;;;;;6.22;2.47;;;;;;;;;;4978316;28;20045;-72
2023/09/27 09:19:25;;;;;;;8.88;3.42;;;;;;;;;;4980444;28;20157;-71
2023/09/27 09:21:58;;;;;;;9.50;3.17;;;;;;;;;;4975431;28;20878;-71
2023/09/27 09:24:25;;;;;;;7.88;3.25;;;;;;;;;;4979533;28;20143;-72
2023/09/27 09:27:10;;;;;;;6.63;2.40;;;;;;;;;;4976554;28;20080;-74
2023/09/27 09:29:53;;;;;;;5.93;2.30;;;;;;;;;;4976483;28;20041;-72
2023/09/27 09:32:24;;;;;;;5.55;1.70;;;;;;;;;;4979280;28;20028;-73
2023/09/27 09:34:54;;;;;;;6.43;2.03;;;;;;;;;;4971743;28;21712;-73
2023/09/27 09:37:24;;;;;;;5.00;1.58;;;;;;;;;;4980145;28;20066;-73
2023/09/27 09:39:51;;;;;;;6.82;2.00;;;;;;;;;;4974723;28;20477;-72
2023/09/27 09:42:31;;;;;;;5.57;2.10;;;;;;;;;;4978216;28;20249;-72
2023/09/27 09:45:08;;;;;;;6.53;1.90;;;;;;;;;;4976721;28;20514;-73
2023/09/27 09:47:35;;;;;;;6.47;1.95;;;;;;;;;;4972731;28;20030;-73
2023/09/27 09:50:06;;;;;;;5.25;1.58;;;;;;;;;;4976377;28;20034;-72
2023/09/27 09:52:35;;;;;;;4.88;1.55;;;;;;;;;;4974115;28;20022;-73
2023/09/27 09:55:03;;;;;;;5.68;1.40;;;;;;;;;;4979073;28;20330;-73
2023/09/27 09:57:35;;;;;;;5.80;1.65;;;;;;;;;;4977094;28;20133;-73
2023/09/27 10:00:18;;;;;;;4.25;1.60;;;;;;;;;;4980353;28;20025;-72
2023/09/27 10:02:53;;;;;;;7.43;2.20;;;;;;;;;;4976042;28;20654;-72
2023/09/27 10:05:22;;;;;;;5.80;1.85;;;;;;;;;;4980424;28;20039;-71
2023/09/27 10:07:49;;;;;;;8.48;2.42;;;;;;;;;;4975470;28;20471;-72
2023/09/27 10:10:19;;;;;;;6.93;2.20;;;;;;;;;;4978900;28;20344;-72
2023/09/27 10:12:46;;;;;;;5.95;2.13;;;;;;;;;;4976383;28;20054;-72
2023/09/27 10:15:14;;;;;;;7.22;2.67;;;;;;;;;;4976849;28;20302;-72
2023/09/27 10:17:40;;;;;;;13.73;4.55;;;;;;;;;;4974326;28;20034;-72
2023/09/27 10:20:19;;;;;;;5.53;1.83;;;;;;;;;;4972841;28;20496;-73
2023/09/27 10:22:46;;;;;;;9.25;4.07;;;;;;;;;;4975061;28;20030;-73
2023/09/27 10:25:28;;;;;;;19.08;6.18;;;;;;;;;;4978554;28;20045;-73
2023/09/27 10:30:38;;;;;;;5.78;2.03;;;;;;;;;;4975889;28;20304;-74
2023/09/27 10:33:17;;;;;;;6.22;2.10;;;;;;;;;;4975732;28;20053;-72
2023/09/27 10:36:01;;;;;;;12.43;3.22;;;;;;;;;;4974891;28;20536;-72
2023/09/27 10:38:42;;;;;;;5.10;1.70;;;;;;;;;;4975881;28;20069;-73
2023/09/27 10:41:27;;;;;;;8.10;2.25;;;;;;;;;;4975389;28;20034;-73
2023/09/27 10:43:54;;;;;;;5.28;1.50;;;;;;;;;;4971847;28;20034;-72
2023/09/27 10:46:20;;;;;;;3.38;1.35;;;;;;;;;;4975895;28;20053;-73
2023/09/27 10:48:53;;;;;;;6.40;1.80;;;;;;;;;;4972701;28;20121;-75
2023/09/27 10:51:21;;;;;;;6.22;1.90;;;;;;;;;;4975080;28;20370;-73
2023/09/27 10:53:48;;;;;;;4.38;1.50;;;;;;;;;;4974137;28;20049;-73
2023/09/27 10:56:15;;;;;;;5.03;1.30;;;;;;;;;;4976655;28;20037;-73
2023/09/27 10:58:52;;;;;;;4.68;1.50;;;;;;;;;;4971720;28;20518;-73
2023/09/27 11:01:22;;;;;;;4.22;1.40;;;;;;;;;;4976874;28;20454;-73
2023/09/27 11:03:48;;;;;;;5.28;1.80;;;;;;;;;;4976293;28;20104;-75
2023/09/27 11:06:15;;;;;;;4.25;1.52;;;;;;;;;;4976424;28;20027;-74
2023/09/27 11:08:43;;;;;;;4.07;1.48;;;;;;;;;;4972287;28;20477;-75
2023/09/27 11:11:11;;;;;;;4.72;1.40;;;;;;;;;;4991708;28;20496;-74
2023/09/27 11:13:46;;;;;;;6.03;2.05;;;;;;;;;;4970998;28;20533;-74
2023/09/27 11:16:18;;;;;;;5.13;1.77;;;;;;;;;;4979769;28;20396;-74
2023/09/27 11:18:57;;;;;;;4.97;1.73;;;;;;;;;;4973592;28;20140;-75
2023/09/27 11:21:25;;;;;;;4.38;1.50;;;;;;;;;;4977741;28;20418;-75
2023/09/27 11:23:54;;;;;;;6.22;1.95;;;;;;;;;;4972399;28;20961;-74
2023/09/27 11:26:21;;;;;;;4.85;1.77;;;;;;;;;;4977497;28;20034;-74
2023/09/27 11:28:56;;;;;;;6.30;2.20;;;;;;;;;;4973165;28;20252;-74
2023/09/27 11:31:23;;;;;;;6.60;1.83;;;;;;;;;;4971480;28;20030;-75
2023/09/27 11:33:49;;;;;;;4.00;1.30;;;;;;;;;;4974688;28;20495;-74
2023/09/27 11:36:15;;;;;;;4.47;1.63;;;;;;;;;;4973649;28;20077;-75
2023/09/27 11:38:51;;;;;;;4.95;1.50;;;;;;;;;;4974977;28;20034;-73
2023/09/27 11:41:20;;;;;;;5.35;1.45;;;;;;;;;;4976375;28;20464;-73
2023/09/27 11:43:46;;;;;;;5.47;1.70;;;;;;;;;;4974438;28;20038;-73
2023/09/27 11:46:25;;;;;;;5.78;2.00;;;;;;;;;;4978636;28;20115;-73
2023/09/27 11:48:52;;;;;;;4.50;1.60;;;;;;;;;;4987643;28;20453;-73
2023/09/27 11:51:18;;;;;;;5.38;1.65;;;;;;;;;;4976286;28;20163;-73
2023/09/27 11:53:45;;;;;;;4.70;1.65;;;;;;;;;;4972902;28;20026;-73
2023/09/27 11:56:12;;;;;;;4.30;1.55;;;;;;;;;;4975504;28;20758;-73
2023/09/27 11:58:38;;;;;;;4.63;1.67;;;;;;;;;;4976079;28;20244;-73
2023/09/27 12:01:07;;;;;;;5.50;1.95;;;;;;;;;;4975850;28;20018;-74
2023/09/27 12:03:33;;;;;;;4.18;1.58;;;;;;;;;;4957808;28;20451;-73
2023/09/27 12:05:59;;;;;;;5.47;1.45;;;;;;;;;;4974407;28;20034;-73
2023/09/27 12:08:25;;;;;;;4.28;1.60;;;;;;;;;;4973444;28;20046;-73
2023/09/27 12:10:51;;;;;;;6.05;2.20;;;;;;;;;;4976865;28;20109;-73
2023/09/27 12:13:17;;;;;;;5.55;2.40;;;;;;;;;;4980626;28;20050;-73
2023/09/27 12:15:44;;;;;;;5.28;2.00;;;;;;;;;;4980762;28;20334;-73
2023/09/27 12:18:10;;;;;;;4.88;1.35;;;;;;;;;;4979870;28;20049;-75
2023/09/27 12:20:39;;;;;;;6.15;1.70;;;;;;;;;;4977042;28;20105;-75
2023/09/27 12:23:05;;;;;;;5.07;1.70;;;;;;;;;;4978249;28;20026;-75
2023/09/27 12:25:33;;;;;;;6.22;1.60;;;;;;;;;;4974058;28;20040;-73
2023/09/27 12:27:59;;;;;;;6.18;1.60;;;;;;;;;;4980507;28;20022;-74
2023/09/27 12:30:27;;;;;;;4.57;1.70;;;;;;;;;;4975306;28;20674;-74
2023/09/27 12:32:55;;;;;;;5.07;1.38;;;;;;;;;;4974986;28;20124;-74
2023/09/27 12:35:21;;;;;;;4.05;1.42;;;;;;;;;;4980438;28;20030;-74
2023/09/27 12:37:48;;;;;;;5.90;1.70;;;;;;;;;;4974941;28;20888;-74
2023/09/27 12:40:14;;;;;;;5.25;1.63;;;;;;;;;;4977388;28;20031;-73
2023/09/27 12:42:40;;;;;;;5.75;1.55;;;;;;;;;;4974400;28;20164;-74
2023/09/27 12:45:07;;;;;;;4.90;1.60;;;;;;;;;;4978526;28;20247;-73
2023/09/27 12:47:33;;;;;;;4.38;1.60;;;;;;;;;;4974085;28;20068;-73
2023/09/27 12:50:03;;;;;;;8.10;2.03;;;;;;;;;;4975216;28;20445;-73
2023/09/27 12:52:30;;;;;;;4.15;1.50;;;;;;;;;;4976519;28;20105;-74
2023/09/27 12:54:56;;;;;;;5.40;1.73;;;;;;;;;;4977504;28;20052;-74
2023/09/27 12:57:22;;;;;;;5.22;1.55;;;;;;;;;;4979266;28;20413;-73
2023/09/27 12:59:50;;;;;;;3.35;1.20;;;;;;;;;;4975142;28;20034;-74
2023/09/27 13:02:16;;;;;;;4.97;1.30;;;;;;;;;;4979055;28;20109;-75
2023/09/27 13:04:43;;;;;;;5.80;1.80;;;;;;;;;;4974246;28;20038;-75
2023/09/27 13:07:10;;;;;;;5.88;1.75;;;;;;;;;;4973078;28;20311;-74
2023/09/27 13:09:36;;;;;;;6.43;1.90;;;;;;;;;;4972439;28;20026;-73
2023/09/27 13:12:03;;;;;;;4.50;1.52;;;;;;;;;;4975186;28;20042;-75
2023/09/27 13:14:29;;;;;;;5.82;2.35;;;;;;;;;;4976698;28;20422;-75
2023/09/27 13:16:56;;;;;;;6.28;2.08;;;;;;;;;;4974312;28;20388;-75
2023/09/27 13:19:22;;;;;;;4.68;1.70;;;;;;;;;;4977252;28;20068;-73
2023/09/27 13:21:48;;;;;;;5.15;1.98;;;;;;;;;;4973396;28;20257;-74
2023/09/27 13:24:14;;;;;;;5.30;1.58;;;;;;;;;;4973703;28;20348;-74
2023/09/27 13:26:40;;;;;;;5.95;1.90;;;;;;;;;;4974143;28;20037;-75
2023/09/27 13:29:06;;;;;;;8.90;1.88;;;;;;;;;;4978967;28;20408;-74
2023/09/27 13:31:33;;;;;;;8.50;2.20;;;;;;;;;;4974904;28;20162;-75
2023/09/27 13:34:00;;;;;;;5.10;1.50;;;;;;;;;;4973865;28;20483;-75
2023/09/27 13:36:27;;;;;;;5.97;1.80;;;;;;;;;;4975347;28;20033;-74
2023/09/27 13:38:53;;;;;;;6.28;1.90;;;;;;;;;;4973103;28;20688;-75
2023/09/27 13:41:20;;;;;;;7.32;1.40;;;;;;;;;;4973113;28;20048;-74
2023/09/27 13:43:47;;;;;;;5.60;1.60;;;;;;;;;;4972052;28;20069;-75
2023/09/27 13:46:13;;;;;;;4.20;1.60;;;;;;;;;;4974325;28;20566;-74
2023/09/27 13:48:40;;;;;;;4.60;1.60;;;;;;;;;;4971741;28;20026;-74
2023/09/27 13:51:06;;;;;;;4.95;1.77;;;;;;;;;;4976392;28;20107;-74
2023/09/27 13:53:32;;;;;;;5.05;1.60;;;;;;;;;;4973573;28;20380;-75
2023/09/27 13:55:58;;;;;;;4.57;1.70;;;;;;;;;;4969338;28;20030;-74
2023/09/27 13:58:25;;;;;;;5.13;1.70;;;;;;;;;;4975931;28;20022;-74
2023/09/27 14:00:52;;;;;;;4.63;1.80;;;;;;;;;;4972687;28;20045;-74
2023/09/27 14:03:19;;;;;;;5.57;1.65;;;;;;;;;;4973924;28;20093;-74
2023/09/27 14:05:45;;;;;;;6.90;2.00;;;;;;;;;;4970188;28;20247;-74
2023/09/27 14:08:11;;;;;;;6.00;1.98;;;;;;;;;;4978476;28;20030;-75
2023/09/27 14:10:37;;;;;;;6.55;2.90;;;;;;;;;;4968814;28;20107;-74
2023/09/27 14:13:03;;;;;;;6.65;2.10;;;;;;;;;;4971721;28;20046;-73
2023/09/27 14:15:29;;;;;;;6.32;2.03;;;;;;;;;;4974153;28;20240;-74
2023/09/27 14:17:56;;;;;;;6.47;1.88;;;;;;;;;;4969489;28;20492;-74
2023/09/27 14:20:22;;;;;;;4.28;1.50;;;;;;;;;;4974469;28;20112;-74
2023/09/27 14:22:48;;;;;;;6.70;1.75;;;;;;;;;;4973096;28;20057;-74
2023/09/27 14:25:14;;;;;;;5.32;1.67;;;;;;;;;;4975140;28;20433;-74
2023/09/27 14:27:41;;;;;;;6.07;1.60;;;;;;;;;;4971549;28;20044;-74
2023/09/27 14:30:09;;;;;;;5.30;1.48;;;;;;;;;;4972969;28;20066;-74
2023/09/27 14:32:35;;;;;;;6.43;1.65;;;;;;;;;;4971110;28;20496;-74
2023/09/27 14:35:02;;;;;;;5.40;1.23;;;;;;;;;;4975043;28;20034;-75
2023/09/27 14:37:29;;;;;;;7.55;2.72;;;;;;;;;;4972518;28;20534;-74
2023/09/27 14:39:55;;;;;;;5.63;2.22;;;;;;;;;;4962992;28;20809;-74
2023/09/27 14:42:21;;;;;;;7.15;1.70;;;;;;;;;;4976355;28;20033;-74
2023/09/27 14:44:47;;;;;;;7.10;2.20;;;;;;;;;;4970319;28;20031;-73
2023/09/27 14:47:13;;;;;;;5.97;2.35;;;;;;;;;;4978317;28;20105;-72